FW6490 Weather Reports


time (UTC)temp
F
wind
direction
speed
knots
gust
knots
rain 1hr
in
rain 24hr
in
rain mn
in
humidity
%
barometer
mb
20210127130710 47 126 5.2 15.6 0.12 0.69 0.54 92 1012.4
20210127130206 47 176 4.3 15.6 0.12 0.68 0.53 92 1012.4
20210127125715 47 165 4.3 12.2 0.12 0.67 0.52 92 1012.8
20210127125204 47 115 4.3 12.2 0.12 0.66 0.51 92 1012.8
20210127124703 47 161 4.3 15.6 0.12 0.65 0.50 91 1012.8
20210127124201 47 106 5.2 15.6 0.12 0.64 0.49 91 1013.0
20210127123703 47 156 6.1 15.6 0.10 0.62 0.47 91 1013.0
20210127123202 47 71 7.0 20.0 0.10 0.61 0.46 90 1013.0
20210127122659 47 44 6.1 20.0 0.11 0.60 0.45 90 1013.0
20210127122202 47 165 6.1 16.5 0.11 0.59 0.44 91 1013.0
20210127121709 47 113 6.1 16.5 0.11 0.58 0.43 91 1013.0
20210127121158 47 112 5.2 15.6 0.11 0.57 0.42 91 1013.1
20210127120713 47 113 5.2 16.5 0.12 0.57 0.42 91 1013.1
20210127120157 47 151 6.1 16.5 0.13 0.56 0.41 91 1013.1
20210127115702 47 92 6.1 21.7 0.13 0.55 0.40 91 1013.2
20210127115159 47 154 5.2 21.7 0.14 0.54 0.39 90 1013.2
20210127114655 47 180 3.5 14.8 0.14 0.53 0.39 91 1013.2
20210127114200 47 128 4.3 19.1 0.14 0.52 0.38 90 1013.5
20210127113656 47 175 5.2 19.1 0.15 0.52 0.37 91 1013.5
20210127113153 47 202 5.2 16.5 0.15 0.51 0.36 91 1013.5
20210127112649 47 198 4.3 16.5 0.14 0.49 0.35 90 1014.0
20210127112151 47 138 4.3 11.3 0.13 0.48 0.33 90 1014.0
20210127111649 47 142 4.3 11.3 0.13 0.47 0.32 90 1014.0
20210127111149 47 145 5.2 20.0 0.13 0.46 0.31 89 1014.1
20210127110647 47 124 6.1 20.0 0.13 0.45 0.30 89 1014.1
20210127110202 47 161 5.2 18.2 0.12 0.43 0.28 89 1014.1
20210127105646 47 154 5.2 14.8 0.12 0.42 0.27 89 1014.5
20210127105230 47 124 6.1 14.8 0.10 0.40 0.25 89 1014.5
20210127104646 47 82 5.2 12.2 0.10 0.39 0.24 88 1014.5
20210127104149 47 103 5.2 12.2 0.10 0.38 0.23 88 1014.3
20210127103641 47 126 6.1 14.8 0.09 0.37 0.22 88 1014.3
20210127103147 47 116 4.3 14.8 0.08 0.36 0.21 88 1014.3
20210127102648 47 209 4.3 13.0 0.08 0.35 0.20 88 1014.4
20210127102143 47 134 4.3 16.5 0.08 0.35 0.20 88 1014.4
20210127101652 47 161 5.2 16.5 0.08 0.34 0.19 88 1014.4
20210127101158 47 244 4.3 13.0 0.08 0.33 0.18 88 1014.5
20210127100638 47 98 5.2 13.0 0.07 0.32 0.17 88 1014.5
20210127100140 47 145 6.1 17.4 0.07 0.31 0.16 87 1014.5
20210127095635 47 114 5.2 17.4 0.07 0.30 0.15 87 1014.6
20210127095158 47 188 3.5 14.8 0.08 0.30 0.15 87 1014.6
20210127094636 47 133 3.5 14.8 0.08 0.29 0.14 87 1014.6
20210127094131 47 123 3.5 13.0 0.07 0.28 0.13 87 1014.7
20210127093628 47 99 4.3 16.5 0.08 0.28 0.13 86 1014.7
20210127093143 47 136 6.1 16.5 0.07 0.27 0.13 85 1014.7
20210127092628 47 120 5.2 13.0 0.08 0.27 0.12 86 1015.0
20210127092123 47 118 5.2 13.0 0.08 0.27 0.12 85 1015.0
20210127091632 47 102 5.2 13.0 0.08 0.26 0.11 85 1015.0
20210127091122 47 153 4.3 15.6 0.08 0.25 0.10 85 1015.1
20210127090619 47 114 3.5 15.6 0.08 0.24 0.09 86 1015.1
20210127090118 47 125 4.3 13.9 0.09 0.24 0.09 86 1015.1
20210127085616 47 135 5.2 13.9 0.09 0.23 0.08 85 1015.1
20210127085120 47 152 5.2 16.5 0.08 0.22 0.07 85 1015.1
20210127084621 47 155 5.2 16.5 0.08 0.21 0.06 86 1015.1
20210127084125 47 127 4.3 13.9 0.08 0.21 0.06 86 1015.1
20210127083707 47 109 3.5 12.2 0.07 0.20 0.05 87 1015.1
20210127083112 47 123 3.5 15.6 0.08 0.20 0.05 87 1015.1
20210127082614 47 103 3.5 15.6 0.08 0.19 0.04 87 1015.5
20210127082108 47 191 3.5 14.8 0.09 0.19 0.04 88 1015.5
20210127081609 47 147 4.3 14.8 0.08 0.18 0.03 87 1015.5
20210127081108 47 32 3.5 9.6 0.07 0.17 0.02 87 1015.6
20210127080610 47 133 3.5 10.4 0.07 0.16 0.01 87 1015.6
20210127080105 47 142 3.5 11.3 0.06 0.15 0.00 87 1015.6
20210127075558 47 101 2.6 11.3 0.06 0.14 0.15 87 1015.8
20210127075057 47 107 1.7 7.8 0.06 0.14 0.14 87 1015.8
20210127074604 47 97 2.6 8.7 0.06 0.13 0.13 87 1015.8
20210127074101 47 165 2.6 13.0 0.06 0.13 0.13 87 1015.6
20210127073559 47 121 2.6 13.0 0.07 0.13 0.13 86 1015.6
20210127073058 47 133 2.6 8.7 0.06 0.12 0.12 87 1015.6
20210127072618 47 146 2.6 10.4 0.05 0.11 0.11 87 1015.7
20210127072054 47 117 2.6 10.4 0.04 0.10 0.10 87 1015.7
20210127071553 47 159 2.6 10.4 0.04 0.10 0.10 87 1015.7
20210127071048 47 165 1.7 10.4 0.04 0.10 0.10 88 1015.8
20210127070601 46 107 0.9 8.7 0.03 0.09 0.09 88 1015.8
20210127070048 46 132 0.9 6.1 0.03 0.09 0.09 88 1015.8
20210127065553 46 124 0.9 6.1 0.02 0.08 0.08 88 1016.0
20210127065045 46 128 1.7 7.0 0.02 0.08 0.08 87 1016.0
20210127064543 46 143 0.9 7.0 0.02 0.07 0.07 87 1016.0
20210127064038 46 128 0.9 7.0 0.02 0.07 0.07 88 1016.0
20210127063535 46 115 0.9 3.5 0.01 0.06 0.06 89 1016.0
20210127063049 46 111 0.9 5.2 0.02 0.06 0.06 88 1016.0
20210127062536 45 132 0.0 5.2 0.02 0.06 0.06 89 1015.9
20210127062031 45 130 0.0 4.3 0.02 0.06 0.06 89 1015.9
20210127061528 45 131 0.0 4.3 0.03 0.06 0.06 89 1015.9
20210127061034 46 130 0.0 4.3 0.03 0.06 0.06 89 1016.0
20210127060532 46 132 0.9 5.2 0.03 0.06 0.06 88 1016.0
20210127060029 46 130 0.9 5.2 0.04 0.06 0.06 88 1016.0
20210127055528 46 128 1.7 7.0 0.04 0.06 0.06 87 1016.1
20210127055037 46 134 1.7 7.0 0.05 0.06 0.06 87 1016.1
20210127054533 46 109 1.7 6.1 0.04 0.05 0.05 87 1016.1
20210127054031 46 124 0.9 6.1 0.04 0.05 0.05 87 1016.3
20210127053528 46 131 1.7 7.8 0.05 0.05 0.05 87 1016.3
20210127053046 46 130 1.7 7.8 0.04 0.04 0.05 86 1016.3
20210127052536 46 132 1.7 7.8 0.04 0.04 0.04 86 1016.1
20210127052037 46 148 0.9 6.1 0.04 0.04 0.04 86 1016.1
20210127051534 46 182 0.9 6.1 0.03 0.03 0.04 86 1016.1
20210127051022 47 147 0.9 6.1 0.03 0.03 0.03 85 1016.1
20210127050521 47 135 0.9 5.2 0.03 0.03 0.03 84 1016.1
20210127050037 47 150 0.9 5.2 0.02 0.02 0.02 84 1016.1
20210127045517 47 149 1.7 6.1 0.02 0.02 0.02 83 1016.3
20210127045021 48 113 1.7 6.1 0.01 0.01 0.01 81 1016.3
20210127044524 48 138 0.9 7.0 0.01 0.01 0.01 80 1016.3
20210127044020 48 132 0.9 7.0 0.00 0.00 0.01 79 1016.1
20210127043519 48 155 0.9 5.2 0.00 0.00 0.00 76 1016.1
20210127043024 49 125 0.0 3.5 0.00 0.00 0.00 75 1016.1
20210127042458 49 112 0.0 1.7 0.00 0.00 0.00 74 1016.1
20210127042010 49 112 0.0 3.5 0.00 0.00 0.00 73 1016.1
20210127041517 49 112 0.0 3.5 0.00 0.00 0.00 73 1016.1
20210127040952 49 113 0.0 2.6 0.00 0.00 0.00 73 1016.1
20210127040448 49 113 0.0 2.6 0.00 0.00 0.00 73 1016.1
20210127035948 49 112 0.9 3.5 0.00 0.00 0.00 73 1016.1
20210127035444 49 112 0.9 3.5 0.00 0.00 0.00 73 1016.3
20210127034944 49 113 0.0 3.5 0.00 0.00 0.00 73 1016.3
20210127034441 49 111 0.0 4.3 0.00 0.00 0.00 72 1016.3
20210127033939 49 110 0.0 4.3 0.00 0.00 0.00 72 1016.4
20210127033437 49 105 0.0 0.9 0.00 0.00 0.00 72 1016.4
20210127032935 49 105 0.0 1.7 0.00 0.00 0.00 72 1016.4
20210127032437 49 105 0.0 1.7 0.00 0.00 0.00 72 1016.2
20210127031931 49 105 0.9 5.2 0.00 0.00 0.00 72 1016.2
20210127031433 49 103 1.7 7.0 0.00 0.00 0.00 72 1016.2
20210127030933 49 140 1.7 7.0 0.00 0.00 0.00 72 1016.1
20210127030436 49 125 1.7 7.8 0.00 0.00 0.00 72 1016.1
20210127025931 49 134 1.7 7.8 0.00 0.00 0.00 72 1016.1
20210127025422 49 116 0.9 6.1 0.00 0.00 0.00 72 1016.1
20210127024921 49 111 0.9 6.1 0.00 0.00 0.00 72 1016.1
20210127024420 49 111 1.7 6.1 0.00 0.00 0.00 72 1016.1
20210127023924 49 131 1.7 4.3 0.00 0.00 0.00 72 1016.1
20210127023414 49 120 1.7 5.2 0.00 0.00 0.00 71 1016.1
20210127022914 49 130 1.7 5.2 0.00 0.00 0.00 71 1016.1
20210127022411 49 142 0.9 6.1 0.00 0.00 0.00 71 1016.1
20210127021912 49 103 0.0 6.1 0.00 0.00 0.00 71 1016.1
20210127021409 49 203 0.0 1.7 0.00 0.00 0.00 71 1016.1
20210127020909 49 205 0.0 3.5 0.00 0.00 0.00 71 1015.9
20210127020414 49 205 0.0 6.1 0.00 0.00 0.00 71 1015.9
20210127015906 49 207 0.9 6.1 0.00 0.00 0.00 71 1015.9
20210127015411 49 207 1.7 7.0 0.00 0.00 0.00 71 1016.0
20210127014905 49 215 1.7 7.0 0.00 0.00 0.00 71 1016.0
20210127014358 49 192 1.7 5.2 0.00 0.00 0.00 70 1016.0
20210127013853 49 200 1.7 7.0 0.00 0.00 0.00 70 1016.0
20210127013351 49 180 2.6 7.0 0.00 0.00 0.00 69 1016.0
20210127012855 50 225 1.7 7.0 0.00 0.00 0.00 68 1016.0
20210127012348 50 212 1.7 6.1 0.00 0.00 0.00 66 1015.9
20210127011842 51 200 0.9 5.2 0.00 0.00 0.00 64 1015.9
20210127011346 51 342 0.0 1.7 0.00 0.00 0.00 62 1015.9
20210127010837 51 338 0.0 0.9 0.00 0.00 0.00 61 1016.0
20210127010338 52 338 0.0 0.0 0.00 0.00 0.00 61 1016.0
20210127005832 52 338 0.0 0.0 0.00 0.00 0.00 59 1016.1
20210127005334 53 338 0.0 0.0 0.00 0.00 0.00 59 1016.2
20210127004829 53 338 0.0 0.0 0.00 0.00 0.00 58 1016.2
20210127004331 53 338 0.0 0.0 0.00 0.00 0.00 56 1016.2
20210127003833 53 338 0.0 2.6 0.00 0.00 0.00 57 1016.2
20210127003328 54 338 0.0 2.6 0.00 0.00 0.00 56 1016.2
20210127002838 54 338 0.0 1.7 0.00 0.00 0.00 55 1016.2
20210127002325 54 338 0.0 1.7 0.00 0.00 0.00 55 1016.2
20210127001826 55 337 0.0 5.2 0.00 0.00 0.00 53 1016.2
20210127001320 55 337 0.0 5.2 0.00 0.00 0.00 53 1016.2
20210127000816 55 338 0.0 2.6 0.00 0.00 0.00 52 1016.2
20210127000327 55 338 0.9 5.2 0.00 0.00 0.00 53 1016.2
20210126235808 54 338 0.9 5.2 0.00 0.00 0.00 54 1016.3
20210126234805 54 309 0.9 6.1 0.00 0.00 0.00 53 1016.3
20210126234300 54 309 0.9 6.1 0.00 0.00 0.00 52 1016.2
20210126233757 55 309 1.7 4.3 0.00 0.00 0.00 52 1016.2
20210126233258 55 309 1.7 4.3 0.00 0.00 0.00 51 1016.2
20210126232759 55 309 0.9 4.3 0.00 0.00 0.00 50 1016.2
20210126232255 55 309 0.9 4.3 0.00 0.00 0.00 51 1016.2
20210126231755 55 309 0.9 4.3 0.00 0.00 0.00 50 1016.2
20210126231259 56 312 1.7 6.1 0.00 0.00 0.00 48 1016.2
20210126230804 55 313 1.7 7.0 0.00 0.00 0.00 49 1016.2
20210126230254 55 297 1.7 7.0 0.00 0.00 0.00 49 1016.2
20210126225801 55 293 2.6 7.0 0.00 0.00 0.00 49 1016.2
20210126224747 55 298 1.7 7.0 0.00 0.00 0.00 48 1016.2
20210126224249 55 275 0.9 6.1 0.00 0.00 0.00 48 1016.2
20210126222747 53 283 3.5 9.6 0.00 0.00 0.00 50 1016.2
20210126222238 54 239 3.5 9.6 0.00 0.00 0.00 50 1016.2
20210126221736 53 301 4.3 10.4 0.00 0.00 0.00 48 1016.2
20210126221237 54 288 4.3 10.4 0.00 0.00 0.00 48 1016.3
20210126220738 54 267 4.3 7.8 0.00 0.00 0.00 47 1016.3
20210126220242 55 290 2.6 7.8 0.00 0.00 0.00 45 1016.3
20210126215734 55 304 2.6 7.0 0.00 0.00 0.00 45 1016.2
20210126215238 56 275 1.7 6.1 0.00 0.00 0.00 44 1016.2
20210126214734 56 0 0.9 3.5 0.00 0.00 0.00 45 1016.2
20210126214250 55 113 0.0 2.6 0.00 0.00 0.00 49 1016.2
20210126213738 56 114 0.0 2.6 0.00 0.00 0.00 48 1016.2
20210126213230 56 82 0.0 1.7 0.00 0.00 0.00 50 1016.2
20210126212729 55 82 0.0 2.6 0.00 0.00 0.00 50 1016.2
20210126212225 55 81 0.0 2.6 0.00 0.00 0.00 49 1016.2
20210126211734 56 51 0.0 0.0 0.00 0.00 0.00 47 1016.2
20210126211219 56 51 0.0 1.7 0.00 0.00 0.00 45 1016.2
20210126210730 57 51 0.0 3.5 0.00 0.00 0.00 46 1016.2
20210126210229 56 52 0.0 3.5 0.00 0.00 0.00 47 1016.2
20210126205712 56 53 0.0 0.9 0.00 0.00 0.00 47 1016.3
20210126205210 57 53 0.0 0.9 0.00 0.00 0.00 44 1016.3
20210126204706 57 53 0.0 0.9 0.00 0.00 0.00 45 1016.3
20210126204209 57 53 0.0 2.6 0.00 0.00 0.00 47 1016.6
20210126203712 56 53 0.0 2.6 0.00 0.00 0.00 47 1016.6
20210126203200 55 53 0.9 4.3 0.00 0.00 0.00 48 1016.6
20210126202659 55 66 1.7 6.1 0.00 0.00 0.00 47 1016.7
20210126202156 56 55 0.9 6.1 0.00 0.00 0.00 46 1016.7
20210126201657 56 49 0.9 3.5 0.00 0.00 0.00 47 1016.7
20210126201154 56 46 0.9 6.1 0.00 0.00 0.00 46 1016.8
20210126200652 55 49 0.9 6.1 0.00 0.00 0.00 48 1016.8
20210126200154 55 67 0.9 6.1 0.00 0.00 0.00 48 1016.8
20210126195653 55 125 0.9 6.1 0.00 0.00 0.00 49 1016.9
20210126195151 55 125 0.9 6.1 0.00 0.00 0.00 48 1016.9
20210126194656 55 134 1.7 7.0 0.00 0.00 0.00 50 1016.9
20210126194148 55 141 1.7 7.0 0.00 0.00 0.00 48 1017.2
20210126193647 56 44 0.9 4.3 0.00 0.00 0.00 45 1017.2
20210126193143 55 17 0.0 1.7 0.00 0.00 0.00 49 1017.2
20210126192643 54 17 0.0 6.1 0.00 0.00 0.00 47 1017.4
20210126192144 54 17 1.7 6.1 0.00 0.00 0.00 49 1017.4
20210126191642 54 13 1.7 5.2 0.00 0.00 0.00 47 1017.4
20210126191152 54 5 0.0 5.2 0.00 0.00 0.00 48 1017.4
20210126190643 55 0 0.0 3.5 0.00 0.00 0.00 47 1017.4
20210126190141 54 0 0.0 3.5 0.00 0.00 0.00 49 1017.4
20210126185638 53 0 0.9 4.3 0.00 0.00 0.00 52 1017.6
20210126185133 53 0 0.9 4.3 0.00 0.00 0.00 50 1017.6
20210126184631 53 355 0.9 4.3 0.00 0.00 0.00 50 1017.6
20210126184129 53 348 0.9 4.3 0.00 0.00 0.00 52 1017.3
20210126183624 52 343 0.9 4.3 0.00 0.00 0.00 53 1017.2
20210126183125 52 339 0.9 4.3 0.00 0.00 0.00 55 1017.2
20210126182630 51 313 0.9 4.3 0.00 0.00 0.00 55 1017.2
20210126182122 52 294 0.9 3.5 0.00 0.00 0.00 55 1017.2
20210126181628 52 294 0.9 3.5 0.00 0.00 0.00 54 1017.2
20210126181119 52 279 0.0 0.9 0.00 0.00 0.00 57 1017.2
20210126180617 51 271 0.0 0.0 0.00 0.00 0.00 58 1017.2
20210126180117 50 271 0.0 0.0 0.00 0.00 0.00 61 1017.2
20210126175620 49 271 0.0 0.0 0.00 0.00 0.00 64 1017.0
20210126175118 48 271 0.0 0.0 0.00 0.00 0.00 65 1017.0
20210126174630 47 271 0.0 0.0 0.00 0.00 0.00 64 1017.0
20210126174125 47 271 0.0 0.0 0.00 0.00 0.00 70 1016.7
20210126173605 46 271 0.0 0.0 0.00 0.00 0.00 71 1016.7
20210126173105 46 271 0.0 0.0 0.00 0.00 0.00 73 1016.7
20210126172608 45 271 0.0 0.0 0.00 0.00 0.00 74 1016.7
20210126172107 44 271 0.0 0.0 0.00 0.00 0.00 74 1016.6
20210126171606 44 271 0.0 0.0 0.00 0.00 0.00 75 1016.6
20210126171102 43 271 0.0 0.0 0.00 0.00 0.00 77 1016.3
20210126170600 43 271 0.0 0.0 0.00 0.00 0.00 77 1016.3
20210126170101 42 271 0.0 0.0 0.00 0.00 0.00 78 1016.3
20210126165551 42 273 0.0 0.0 0.00 0.00 0.00 78 1016.1
20210126165052 41 272 0.0 0.0 0.00 0.00 0.00 80 1016.1
20210126164548 40 272 0.0 0.0 0.00 0.00 0.00 79 1016.1
20210126164045 40 272 0.0 0.0 0.00 0.00 0.00 81 1015.9
20210126163549 39 272 0.0 0.0 0.00 0.00 0.00 83 1015.9
20210126163044 38 272 0.0 0.0 0.00 0.00 0.00 85 1015.9
20210126162543 37 272 0.0 0.0 0.00 0.00 0.00 86 1015.7
20210126162042 36 272 0.0 0.0 0.00 0.00 0.00 89 1015.6
20210126161540 35 272 0.0 0.0 0.00 0.00 0.00 91 1015.6
20210126161041 35 272 0.0 0.0 0.00 0.00 0.00 90 1015.5
20210126160533 34 272 0.0 0.0 0.00 0.00 0.00 91 1015.5
20210126160032 33 272 0.0 0.0 0.00 0.00 0.00 91 1015.5
20210126155535 33 272 0.0 0.0 0.00 0.00 0.00 92 1015.4
20210126155029 33 272 0.0 0.0 0.00 0.00 0.00 92 1015.4
20210126154528 32 272 0.0 0.0 0.00 0.00 0.00 92 1015.4
20210126154029 32 272 0.0 0.0 0.00 0.00 0.00 91 1015.4
20210126153519 32 272 0.0 0.0 0.00 0.00 0.00 91 1015.4
20210126153023 32 272 0.0 0.0 0.00 0.00 0.00 91 1015.4
20210126152527 32 272 0.0 0.0 0.00 0.00 0.00 91 1015.0
20210126152023 32 272 0.0 0.0 0.00 0.00 0.00 91 1015.0
20210126151526 32 272 0.0 0.0 0.00 0.00 0.00 91 1015.0
20210126151021 32 272 0.0 0.0 0.00 0.00 0.00 91 1014.8
20210126150515 32 272 0.0 0.0 0.00 0.00 0.00 91 1014.8
20210126150025 32 272 0.0 0.0 0.00 0.00 0.00 91 1014.8
20210126145507 32 272 0.0 0.0 0.00 0.00 0.00 91 1014.4
20210126145017 32 272 0.0 0.0 0.00 0.00 0.00 91 1014.4
20210126144459 32 272 0.0 0.0 0.00 0.00 0.00 91 1014.4
20210126143959 32 272 0.0 0.0 0.00 0.00 0.00 91 1014.4
20210126143455 32 272 0.0 0.0 0.00 0.00 0.00 90 1014.4
20210126142953 32 272 0.0 0.0 0.00 0.00 0.00 90 1014.4
20210126142451 32 272 0.0 0.0 0.00 0.00 0.00 90 1014.1
20210126141949 32 272 0.0 0.0 0.00 0.00 0.00 90 1014.1
20210126141444 33 272 0.0 0.0 0.00 0.00 0.00 90 1014.1
20210126140948 32 272 0.0 0.0 0.00 0.00 0.00 91 1014.0
20210126140439 32 272 0.0 0.0 0.00 0.00 0.00 90 1014.0
20210126135936 32 272 0.0 0.0 0.00 0.00 0.00 90 1014.0
20210126135440 32 272 0.0 0.0 0.00 0.00 0.00 90 1013.8
20210126134933 32 272 0.0 0.0 0.00 0.00 0.00 90 1013.8
20210126134427 32 272 0.0 0.0 0.00 0.00 0.00 89 1013.8
20210126133933 32 272 0.0 0.0 0.00 0.00 0.00 89 1013.5
20210126133426 33 272 0.0 0.0 0.00 0.00 0.00 88 1013.5
20210126132925 33 272 0.0 0.0 0.00 0.00 0.00 88 1013.5
20210126132422 33 272 0.0 0.0 0.00 0.00 0.00 88 1013.3
20210126131923 33 272 0.0 0.0 0.00 0.00 0.00 88 1013.3
20210126131418 33 272 0.0 1.7 0.00 0.00 0.00 88 1013.3